Time;durP1;ratioP1;P1;durP2;ratioP2;P2;SDS_P1;SDS_P2;PMS_P1;PMS_P2;Temp;Humidity;BMP_temperature;BMP_pressure;BME280_temperature;BME280_humidity;BME280_pressure;Samples;Min_cycle;Max_cycle;Signal;HPM_P1;HPM_P2
2024/01/11 00:02:10;;;;;;;27.40;14.05;;;-6.90;99.90;;;;;;5034379;28;20237;-60
2024/01/11 00:04:37;;;;;;;24.48;13.05;;;-6.90;99.90;;;;;;5034779;28;20202;-61
2024/01/11 00:07:04;;;;;;;20.48;12.52;;;-6.90;99.90;;;;;;5034247;28;20198;-61
2024/01/11 00:09:31;;;;;;;21.05;11.77;;;-6.90;99.90;;;;;;5034132;28;20224;-61
2024/01/11 00:11:59;;;;;;;22.30;12.77;;;-6.90;99.90;;;;;;5034021;28;20576;-61
2024/01/11 00:14:26;;;;;;;22.75;13.02;;;-6.90;99.90;;;;;;5034398;28;20213;-61
2024/01/11 00:16:53;;;;;;;25.70;14.45;;;-6.90;99.90;;;;;;5033526;28;20204;-61
2024/01/11 00:19:20;;;;;;;29.40;13.48;;;-7.00;99.90;;;;;;5033441;28;20210;-61
2024/01/11 00:21:46;;;;;;;21.80;13.20;;;-7.00;99.90;;;;;;5033151;28;20223;-61
2024/01/11 00:24:13;;;;;;;23.10;13.85;;;-7.00;99.90;;;;;;5032930;28;20576;-61
2024/01/11 00:26:41;;;;;;;23.58;14.32;;;-7.10;99.90;;;;;;5032809;28;20210;-61
2024/01/11 00:29:09;;;;;;;25.48;14.35;;;-7.10;99.90;;;;;;5036027;28;20208;-61
2024/01/11 00:31:37;;;;;;;24.23;14.10;;;-7.10;99.90;;;;;;5037322;28;20225;-61
2024/01/11 00:34:04;;;;;;;17.40;10.98;;;-7.20;99.90;;;;;;5037219;28;20206;-61
2024/01/11 00:36:32;;;;;;;23.85;13.27;;;-7.20;99.90;;;;;;5036664;28;20551;-62
2024/01/11 00:38:59;;;;;;;22.83;12.88;;;-7.20;99.90;;;;;;5036679;28;20222;-61
2024/01/11 00:41:26;;;;;;;19.75;12.52;;;-7.30;99.90;;;;;;5036857;28;20225;-61
2024/01/11 00:43:53;;;;;;;26.77;13.75;;;-7.30;99.90;;;;;;5037083;28;20202;-61
2024/01/11 00:46:21;;;;;;;23.55;13.68;;;-7.30;99.90;;;;;;5036900;28;20265;-62
2024/01/11 00:48:48;;;;;;;22.23;12.40;;;-7.30;99.90;;;;;;5037751;28;20340;-61
2024/01/11 00:51:15;;;;;;;26.60;15.45;;;-7.30;99.90;;;;;;5041466;28;20233;-60
2024/01/11 00:53:42;;;;;;;22.23;12.10;;;-7.40;99.90;;;;;;5041936;28;20270;-61
2024/01/11 00:56:16;;;;;;;28.38;13.70;;;-7.40;99.90;;;;;;5042025;28;20206;-60
2024/01/11 00:58:43;;;;;;;27.10;14.07;;;-7.40;99.90;;;;;;5041636;28;20207;-61
2024/01/11 01:01:10;;;;;;;19.73;12.52;;;-7.30;99.90;;;;;;5040576;28;20234;-61
2024/01/11 01:03:38;;;;;;;19.88;13.75;;;-7.30;99.90;;;;;;5041554;28;20736;-62
2024/01/11 01:06:05;;;;;;;21.02;13.32;;;-7.30;99.90;;;;;;5040777;28;20281;-62
2024/01/11 01:08:32;;;;;;;23.75;12.75;;;-7.30;99.90;;;;;;5039994;28;20203;-61
2024/01/11 01:10:59;;;;;;;20.30;13.23;;;-7.30;99.90;;;;;;5038238;28;20233;-60
2024/01/11 01:13:26;;;;;;;21.10;12.80;;;-7.30;99.90;;;;;;5037985;28;20208;-60
2024/01/11 01:15:53;;;;;;;23.83;13.32;;;-7.30;99.90;;;;;;5038930;28;20208;-60
2024/01/11 01:18:20;;;;;;;19.35;11.25;;;-7.40;99.90;;;;;;5039319;28;20313;-61
2024/01/11 01:20:48;;;;;;;21.23;12.18;;;-7.40;99.90;;;;;;5039696;28;20204;-61
2024/01/11 01:23:14;;;;;;;21.02;13.32;;;-7.40;99.90;;;;;;5045172;28;20213;-61
2024/01/11 01:25:41;;;;;;;22.80;12.38;;;-7.50;99.90;;;;;;5039967;28;20205;-61
2024/01/11 01:28:08;;;;;;;22.60;12.32;;;-7.50;99.90;;;;;;5046130;28;20208;-61
2024/01/11 01:30:35;;;;;;;19.83;11.68;;;-7.50;99.90;;;;;;5045865;28;20202;-61
2024/01/11 01:33:01;;;;;;;24.40;13.50;;;-7.60;99.90;;;;;;5040579;28;20229;-61
2024/01/11 01:35:28;;;;;;;18.92;11.07;;;-7.60;99.90;;;;;;5044468;28;20208;-61
2024/01/11 01:37:56;;;;;;;19.35;12.00;;;-7.60;99.90;;;;;;5041579;28;20585;-60
2024/01/11 01:40:23;;;;;;;26.30;14.73;;;-7.60;99.90;;;;;;5041931;28;20198;-60
2024/01/11 01:42:50;;;;;;;24.85;12.45;;;-7.60;99.90;;;;;;5040002;28;20230;-61
2024/01/11 01:45:17;;;;;;;25.00;13.52;;;-7.60;99.90;;;;;;5036605;28;20218;-61
2024/01/11 01:47:45;;;;;;;23.38;12.23;;;-7.70;99.90;;;;;;5036327;28;20253;-61
2024/01/11 01:50:12;;;;;;;24.58;15.23;;;-7.60;99.90;;;;;;5036200;28;20202;-62
2024/01/11 01:52:41;;;;;;;19.00;12.15;;;-7.70;99.90;;;;;;5035888;28;20234;-61
2024/01/11 01:55:13;;;;;;;23.02;12.48;;;-7.70;99.90;;;;;;5036017;28;20202;-60
2024/01/11 01:57:41;;;;;;;24.60;12.75;;;-7.70;99.90;;;;;;5035125;28;20639;-61
2024/01/11 02:00:11;;;;;;;18.92;14.50;;;-7.70;99.90;;;;;;5035457;28;20202;-60
2024/01/11 02:02:40;;;;;;;17.70;12.43;;;-7.70;99.90;;;;;;5035010;28;20234;-61
2024/01/11 02:05:08;;;;;;;25.27;13.35;;;-7.60;99.90;;;;;;5035381;28;20581;-61
2024/01/11 02:07:35;;;;;;;23.15;13.70;;;-7.70;99.90;;;;;;5035478;28;20202;-61
2024/01/11 02:10:03;;;;;;;25.52;12.52;;;-7.70;99.90;;;;;;5035373;28;20211;-61
2024/01/11 02:12:32;;;;;;;17.67;11.75;;;-7.70;99.90;;;;;;5035238;28;20256;-61
2024/01/11 02:14:58;;;;;;;25.67;12.55;;;-7.70;99.90;;;;;;5035157;28;20294;-61
2024/01/11 02:17:25;;;;;;;23.95;12.18;;;-7.70;99.90;;;;;;5035290;28;20687;-61
2024/01/11 02:19:52;;;;;;;17.05;11.45;;;-7.70;99.90;;;;;;5034985;28;20695;-62
2024/01/11 02:22:23;;;;;;;24.90;12.23;;;-7.70;99.90;;;;;;5035861;28;20343;-61
2024/01/11 02:24:52;;;;;;;24.17;12.68;;;-7.70;99.90;;;;;;5036569;28;20615;-60
2024/01/11 02:27:19;;;;;;;21.80;12.32;;;-7.80;99.90;;;;;;5036458;28;20198;-61
2024/01/11 02:29:46;;;;;;;20.45;11.77;;;-7.70;99.90;;;;;;5035436;28;20195;-61
2024/01/11 02:32:13;;;;;;;26.10;13.70;;;-7.70;99.90;;;;;;5035848;28;20225;-61
2024/01/11 02:34:40;;;;;;;24.67;12.05;;;-7.70;99.90;;;;;;5037861;28;20198;-60
2024/01/11 02:37:07;;;;;;;25.83;12.65;;;-7.60;99.90;;;;;;5038947;28;20202;-60
2024/01/11 02:39:34;;;;;;;27.38;12.80;;;-7.60;99.90;;;;;;5037210;28;20222;-61
2024/01/11 02:42:02;;;;;;;28.45;13.00;;;-7.60;99.90;;;;;;5036496;28;20236;-61
2024/01/11 02:44:29;;;;;;;21.02;11.65;;;-7.50;99.90;;;;;;5037344;28;20203;-61
2024/01/11 02:46:56;;;;;;;23.85;12.65;;;-7.50;99.90;;;;;;5037464;28;20285;-61
2024/01/11 02:49:22;;;;;;;22.42;11.95;;;-7.50;99.90;;;;;;5037178;28;20208;-61
2024/01/11 02:51:49;;;;;;;22.88;12.85;;;-7.40;99.90;;;;;;5035703;28;20298;-61
2024/01/11 02:54:16;;;;;;;23.23;12.23;;;-7.40;99.90;;;;;;5036773;28;20208;-61
2024/01/11 02:56:43;;;;;;;18.77;10.52;;;-7.40;99.90;;;;;;5036543;28;20207;-60
2024/01/11 02:59:11;;;;;;;24.35;13.68;;;-7.40;99.90;;;;;;5036324;28;20226;-61
2024/01/11 03:01:38;;;;;;;20.55;12.75;;;-7.40;99.90;;;;;;5036861;28;20234;-60
2024/01/11 03:04:06;;;;;;;20.17;11.30;;;-7.30;99.90;;;;;;5036401;28;20740;-61
2024/01/11 03:06:32;;;;;;;18.25;12.13;;;-7.30;99.90;;;;;;5036101;28;20206;-62
2024/01/11 03:08:59;;;;;;;25.40;13.95;;;-7.30;99.90;;;;;;5034987;28;20205;-60
2024/01/11 03:11:26;;;;;;;28.73;12.65;;;-7.30;99.90;;;;;;5034418;28;20218;-60
2024/01/11 03:13:53;;;;;;;28.60;14.30;;;-7.30;99.90;;;;;;5034187;28;20369;-60
2024/01/11 03:16:21;;;;;;;24.60;14.00;;;-7.30;99.90;;;;;;5034184;28;20205;-61
2024/01/11 03:18:48;;;;;;;18.00;13.60;;;-7.30;99.90;;;;;;5034054;28;20219;-61
2024/01/11 03:21:14;;;;;;;24.38;13.38;;;-7.40;99.90;;;;;;5033929;28;20229;-61
2024/01/11 03:23:41;;;;;;;26.60;13.27;;;-7.40;99.90;;;;;;5034263;28;20210;-61
2024/01/11 03:26:14;;;;;;;25.27;13.85;;;-7.40;99.90;;;;;;5035726;28;20202;-61
2024/01/11 03:28:41;;;;;;;24.70;13.48;;;-7.40;99.90;;;;;;5035069;28;20190;-61
2024/01/11 03:31:08;;;;;;;21.38;12.00;;;-7.40;99.90;;;;;;5033818;28;20691;-61
2024/01/11 03:33:37;;;;;;;20.75;12.00;;;-7.40;99.90;;;;;;5033698;28;20212;-61
2024/01/11 03:36:08;;;;;;;21.77;11.77;;;-7.30;99.90;;;;;;5035452;28;20202;-61
2024/01/11 03:38:35;;;;;;;23.85;12.57;;;-7.30;99.90;;;;;;5036137;28;20265;-61
2024/01/11 03:41:02;;;;;;;22.85;12.65;;;-7.30;99.90;;;;;;5038153;28;20230;-61
2024/01/11 03:43:28;;;;;;;24.35;12.73;;;-7.20;99.90;;;;;;5036718;28;20289;-61
2024/01/11 03:45:55;;;;;;;21.20;12.57;;;-7.20;99.90;;;;;;5035569;28;20583;-61
2024/01/11 03:48:22;;;;;;;18.83;11.10;;;-7.20;99.90;;;;;;5035593;28;20224;-61
2024/01/11 03:50:50;;;;;;;20.73;12.60;;;-7.20;99.90;;;;;;5034462;28;20202;-60
2024/01/11 03:53:17;;;;;;;27.15;14.88;;;-7.20;99.90;;;;;;5034225;28;20199;-60
2024/01/11 03:55:44;;;;;;;26.27;13.40;;;-7.20;99.90;;;;;;5033634;28;20217;-61
2024/01/11 03:58:10;;;;;;;23.75;11.93;;;-7.20;99.90;;;;;;5033497;28;20202;-62
2024/01/11 04:00:37;;;;;;;29.65;15.27;;;-7.20;99.90;;;;;;5047877;28;20232;-61
2024/01/11 04:03:04;;;;;;;21.05;12.23;;;-7.20;99.90;;;;;;5052753;28;20241;-62
2024/01/11 04:05:31;;;;;;;24.42;12.50;;;-7.30;99.90;;;;;;5053756;28;20261;-61
2024/01/11 04:07:59;;;;;;;29.17;13.45;;;-7.30;99.90;;;;;;5054919;28;20202;-61
2024/01/11 04:12:57;;;;;;;25.20;12.50;;;-7.30;99.90;;;;;;5110417;27;20537;-61
2024/01/11 04:15:24;;;;;;;23.45;12.73;;;-7.30;99.90;;;;;;5107542;28;20200;-61
2024/01/11 04:17:50;;;;;;;20.48;12.10;;;-7.30;99.90;;;;;;5106993;28;20200;-62
2024/01/11 04:20:17;;;;;;;21.50;12.15;;;-7.30;99.90;;;;;;5106966;28;20268;-61
2024/01/11 04:22:44;;;;;;;20.23;11.57;;;-7.30;99.90;;;;;;5107100;28;20318;-61
2024/01/11 04:25:11;;;;;;;28.50;13.65;;;-7.40;99.90;;;;;;5110483;28;20662;-60
2024/01/11 04:27:38;;;;;;;21.67;13.00;;;-7.40;99.90;;;;;;5111035;28;20674;-61
2024/01/11 04:30:07;;;;;;;22.15;12.32;;;-7.40;99.90;;;;;;5110269;28;20230;-61
2024/01/11 04:32:34;;;;;;;27.42;13.73;;;-7.40;99.90;;;;;;5102419;28;20287;-61
2024/01/11 04:35:01;;;;;;;29.70;14.65;;;-7.30;99.90;;;;;;5092908;28;20205;-61
2024/01/11 04:37:27;;;;;;;21.17;12.55;;;-7.30;99.90;;;;;;5091759;28;20205;-61
2024/01/11 04:39:54;;;;;;;26.35;14.35;;;-7.30;99.90;;;;;;5091893;28;20204;-61
2024/01/11 04:42:21;;;;;;;27.58;13.45;;;-7.20;99.90;;;;;;5092422;28;20224;-61
2024/01/11 04:44:48;;;;;;;25.85;14.35;;;-7.20;99.90;;;;;;5093615;28;20204;-61
2024/01/11 04:47:16;;;;;;;24.15;14.02;;;-7.20;99.90;;;;;;5093134;28;20201;-61
2024/01/11 04:49:43;;;;;;;24.38;13.82;;;-7.20;99.90;;;;;;5092590;28;20204;-61
2024/01/11 04:52:09;;;;;;;26.20;12.68;;;-7.20;99.90;;;;;;5091426;28;20721;-61
2024/01/11 04:54:36;;;;;;;28.33;14.05;;;-7.30;99.90;;;;;;5091378;28;20197;-64
2024/01/11 04:57:03;;;;;;;18.73;13.23;;;-7.30;99.90;;;;;;5092283;28;20640;-62
2024/01/11 04:59:30;;;;;;;26.45;14.80;;;-7.30;99.90;;;;;;5092341;28;20200;-61
2024/01/11 05:01:57;;;;;;;22.17;12.32;;;-7.30;99.90;;;;;;5090844;28;20302;-63
2024/01/11 05:04:25;;;;;;;22.35;12.25;;;-7.30;99.90;;;;;;5090873;28;20211;-61
2024/01/11 05:06:52;;;;;;;22.00;12.57;;;-7.30;99.90;;;;;;5090315;28;20765;-62
2024/01/11 05:09:19;;;;;;;20.67;12.32;;;-7.30;99.90;;;;;;5090925;28;20201;-61
2024/01/11 05:11:46;;;;;;;23.02;15.00;;;-7.30;99.90;;;;;;5090665;28;20228;-61
2024/01/11 05:14:13;;;;;;;19.17;11.05;;;-7.40;99.90;;;;;;5091311;28;20246;-61
2024/01/11 05:16:40;;;;;;;23.73;13.60;;;-7.40;99.90;;;;;;5090556;28;20201;-61
2024/01/11 05:19:07;;;;;;;26.38;13.82;;;-7.50;99.90;;;;;;5091546;28;20227;-61
2024/01/11 05:21:35;;;;;;;27.00;13.30;;;-7.50;99.90;;;;;;5090821;28;20600;-61
2024/01/11 05:24:02;;;;;;;19.95;11.60;;;-7.50;99.90;;;;;;5078744;28;20292;-61
2024/01/11 05:26:29;;;;;;;22.30;11.98;;;-7.50;99.90;;;;;;5076726;28;20201;-61
2024/01/11 05:28:56;;;;;;;20.23;11.10;;;-7.60;99.90;;;;;;5076610;28;20236;-61
2024/01/11 05:31:22;;;;;;;23.63;13.00;;;-7.60;99.90;;;;;;5076371;28;20232;-61
2024/01/11 05:33:49;;;;;;;17.85;10.90;;;-7.60;99.90;;;;;;5076286;28;20200;-62
2024/01/11 05:36:16;;;;;;;22.33;12.13;;;-7.60;99.90;;;;;;5076095;28;20200;-62
2024/01/11 05:38:46;;;;;;;18.95;11.13;;;-7.60;99.90;;;;;;5076355;28;20306;-61
2024/01/11 05:41:12;;;;;;;24.77;12.35;;;-7.60;99.90;;;;;;5076969;28;20221;-61
2024/01/11 05:43:40;;;;;;;19.95;12.70;;;-7.50;99.90;;;;;;5078132;28;20200;-61
2024/01/11 05:46:07;;;;;;;24.63;13.63;;;-7.50;99.90;;;;;;5076948;28;20580;-61
2024/01/11 05:48:34;;;;;;;24.70;12.20;;;-7.50;99.90;;;;;;5076534;28;20205;-61
2024/01/11 05:51:01;;;;;;;22.85;11.10;;;-7.40;99.90;;;;;;5075638;28;20303;-61
2024/01/11 05:53:28;;;;;;;22.33;11.40;;;-7.30;99.90;;;;;;5076084;28;20279;-61
2024/01/11 05:55:56;;;;;;;21.17;12.02;;;-7.30;99.90;;;;;;5075955;28;20196;-61
2024/01/11 05:58:23;;;;;;;25.90;10.80;;;-7.20;99.90;;;;;;5075873;28;20288;-60
2024/01/11 06:00:50;;;;;;;23.67;12.30;;;-7.20;99.90;;;;;;5076464;28;20757;-61
2024/01/11 06:03:17;;;;;;;23.25;11.50;;;-7.20;99.90;;;;;;5076260;28;20200;-62
2024/01/11 06:05:43;;;;;;;21.85;14.55;;;-7.20;99.90;;;;;;5076568;28;20224;-61
2024/01/11 06:08:10;;;;;;;22.42;13.07;;;-7.10;99.90;;;;;;5076198;28;20215;-61
2024/01/11 06:10:37;;;;;;;21.88;12.68;;;-7.10;99.90;;;;;;5075967;28;20197;-60
2024/01/11 06:13:05;;;;;;;19.80;12.23;;;-7.10;99.90;;;;;;5076132;28;20237;-61
2024/01/11 06:15:32;;;;;;;29.92;12.73;;;-7.10;99.90;;;;;;5075853;28;20201;-61
2024/01/11 06:18:00;;;;;;;27.10;14.32;;;-7.10;99.90;;;;;;5075322;28;20207;-61
2024/01/11 06:20:26;;;;;;;19.05;13.10;;;-7.00;99.90;;;;;;5076375;28;20205;-61
2024/01/11 06:22:53;;;;;;;22.85;12.13;;;-7.00;99.90;;;;;;5076038;28;20213;-61
2024/01/11 06:25:20;;;;;;;23.15;12.95;;;-7.00;99.90;;;;;;5075904;28;20211;-61
2024/01/11 06:27:48;;;;;;;24.58;13.07;;;-7.00;99.90;;;;;;5076743;28;20205;-61
2024/01/11 06:30:17;;;;;;;23.83;14.00;;;-7.00;99.90;;;;;;5076481;28;20639;-60
2024/01/11 06:32:44;;;;;;;21.38;13.88;;;-6.90;99.90;;;;;;5076267;28;20225;-59
2024/01/11 06:35:11;;;;;;;17.75;11.20;;;-6.90;99.90;;;;;;5075142;28;20204;-61
2024/01/11 06:37:37;;;;;;;21.63;12.98;;;-6.90;99.90;;;;;;5076439;28;20224;-60
2024/01/11 06:40:07;;;;;;;18.20;11.98;;;-7.00;99.90;;;;;;5076456;28;20208;-62
2024/01/11 06:42:34;;;;;;;24.33;12.98;;;-7.00;99.90;;;;;;5076524;28;20245;-61
2024/01/11 06:45:01;;;;;;;23.95;13.65;;;-7.00;99.90;;;;;;5076393;28;20205;-61
2024/01/11 06:47:29;;;;;;;19.27;12.48;;;-7.00;99.90;;;;;;5076319;28;20251;-60
2024/01/11 06:49:56;;;;;;;24.50;12.80;;;-7.00;99.90;;;;;;5075357;28;20208;-61
2024/01/11 06:52:23;;;;;;;22.83;12.85;;;-7.00;99.90;;;;;;5075340;28;20589;-61
2024/01/11 06:54:50;;;;;;;20.75;12.57;;;-7.00;99.90;;;;;;5075427;28;20305;-61
2024/01/11 06:57:16;;;;;;;25.40;12.02;;;-7.00;99.90;;;;;;5076035;28;20201;-62
2024/01/11 06:59:43;;;;;;;25.35;14.65;;;-7.00;99.90;;;;;;5076930;28;20196;-60
2024/01/11 07:02:10;;;;;;;21.83;11.48;;;-7.00;99.90;;;;;;5077778;28;20221;-60
2024/01/11 07:04:39;;;;;;;18.65;11.35;;;-7.00;99.90;;;;;;5077604;28;20227;-61
2024/01/11 07:07:05;;;;;;;23.20;11.73;;;-6.90;99.90;;;;;;5077824;28;20205;-62
2024/01/11 07:09:32;;;;;;;24.85;13.05;;;-6.90;99.90;;;;;;5078244;28;20274;-61
2024/01/11 07:11:59;;;;;;;18.42;11.20;;;-6.90;99.90;;;;;;5077653;28;20232;-61
2024/01/11 07:14:26;;;;;;;24.90;12.65;;;-7.00;99.90;;;;;;5078258;28;20232;-61
2024/01/11 07:16:52;;;;;;;24.73;13.18;;;-6.90;99.90;;;;;;5075114;28;20666;-62
2024/01/11 07:22:43;;;;;;;16.27;10.77;;;-6.90;99.90;;;;;;5076504;28;20280;-61
2024/01/11 07:25:10;;;;;;;12.88;9.05;;;-6.90;99.90;;;;;;5076517;28;20204;-61
2024/01/11 07:27:37;;;;;;;21.67;12.35;;;-6.90;99.90;;;;;;5075572;28;20255;-61
2024/01/11 07:30:06;;;;;;;20.42;11.50;;;-6.90;99.90;;;;;;5074804;28;20229;-61
2024/01/11 07:32:33;;;;;;;24.10;12.57;;;-6.90;99.90;;;;;;5074717;28;20228;-60
2024/01/11 07:34:59;;;;;;;29.13;13.88;;;-6.90;99.90;;;;;;5074790;28;20204;-61
2024/01/11 07:37:27;;;;;;;24.25;12.95;;;-6.90;99.90;;;;;;5074975;28;20236;-61
2024/01/11 07:39:55;;;;;;;21.25;12.32;;;-6.90;99.90;;;;;;5075692;28;20201;-60
2024/01/11 07:42:22;;;;;;;27.20;13.38;;;-6.90;99.90;;;;;;5075372;28;20217;-61
2024/01/11 07:44:49;;;;;;;20.88;13.05;;;-6.90;99.90;;;;;;5076046;28;20678;-60
2024/01/11 07:47:17;;;;;;;23.02;14.02;;;-6.90;99.90;;;;;;5075399;28;20204;-63
2024/01/11 07:49:44;;;;;;;28.13;14.63;;;-6.90;99.90;;;;;;5075068;28;20205;-61
2024/01/11 07:52:10;;;;;;;19.50;12.85;;;-6.90;99.90;;;;;;5075226;28;20579;-61
2024/01/11 07:54:37;;;;;;;24.80;13.15;;;-6.90;99.90;;;;;;5075488;28;20208;-62
2024/01/11 07:57:06;;;;;;;26.00;12.00;;;-6.90;99.90;;;;;;5075170;28;20239;-61
2024/01/11 07:59:35;;;;;;;20.58;10.18;;;-6.80;99.90;;;;;;5075233;28;20197;-62
2024/01/11 08:02:02;;;;;;;28.77;12.98;;;-6.80;99.90;;;;;;5073993;28;20217;-62
2024/01/11 08:04:29;;;;;;;20.83;11.48;;;-6.80;99.90;;;;;;5074077;28;20197;-61
2024/01/11 08:06:56;;;;;;;26.75;15.48;;;-6.70;99.90;;;;;;5074634;28;20205;-61
2024/01/11 08:09:22;;;;;;;29.75;13.75;;;-6.70;99.90;;;;;;5074326;28;20252;-62
2024/01/11 08:11:49;;;;;;;29.60;12.70;;;-6.70;99.90;;;;;;5075485;28;20661;-60
2024/01/11 08:14:18;;;;;;;32.90;14.45;;;-6.70;99.90;;;;;;5075709;28;20211;-60
2024/01/11 08:16:44;;;;;;;24.17;13.68;;;-6.70;99.90;;;;;;5074108;28;20212;-62
2024/01/11 08:19:13;;;;;;;25.05;13.13;;;-6.60;99.90;;;;;;5074107;28;20643;-61
2024/01/11 08:21:41;;;;;;;27.92;13.68;;;-6.60;99.90;;;;;;5073839;28;20714;-60
2024/01/11 08:24:08;;;;;;;25.70;12.55;;;-6.50;99.90;;;;;;5074883;28;20229;-62
2024/01/11 08:26:34;;;;;;;32.78;15.20;;;-6.50;99.90;;;;;;5074030;28;20204;-61
2024/01/11 08:29:02;;;;;;;25.15;14.32;;;-6.50;99.90;;;;;;5073850;28;20671;-61
2024/01/11 08:31:30;;;;;;;27.50;14.77;;;-6.40;99.90;;;;;;5073458;28;20224;-61
2024/01/11 08:33:57;;;;;;;28.17;14.27;;;-6.40;99.90;;;;;;5074108;28;20217;-61
2024/01/11 08:36:23;;;;;;;27.17;12.68;;;-6.30;99.90;;;;;;5074755;28;20582;-61
2024/01/11 08:38:51;;;;;;;25.55;13.27;;;-6.30;99.90;;;;;;5074099;28;20588;-61
2024/01/11 08:41:17;;;;;;;29.20;12.77;;;-6.20;99.90;;;;;;5074140;28;20228;-62
2024/01/11 08:43:44;;;;;;;23.00;12.10;;;-6.20;99.90;;;;;;5078660;28;20206;-61
2024/01/11 08:46:11;;;;;;;23.00;14.85;;;-6.10;99.90;;;;;;5073891;28;20197;-62
2024/01/11 08:48:39;;;;;;;25.50;12.93;;;-6.10;99.90;;;;;;5074354;28;20201;-61
2024/01/11 08:51:06;;;;;;;26.95;12.98;;;-6.10;99.90;;;;;;5073621;28;20221;-62
2024/01/11 08:53:33;;;;;;;26.35;15.35;;;-6.00;99.90;;;;;;5073441;28;20221;-62
2024/01/11 08:55:59;;;;;;;25.48;12.85;;;-5.90;99.90;;;;;;5073011;28;20288;-62
2024/01/11 08:58:26;;;;;;;28.13;14.50;;;-5.80;99.90;;;;;;5075174;28;20207;-63
2024/01/11 09:00:53;;;;;;;22.95;12.27;;;-5.80;99.90;;;;;;5078206;28;20204;-60
2024/01/11 09:03:20;;;;;;;20.90;12.65;;;-5.60;99.90;;;;;;5077876;28;20297;-61
2024/01/11 09:05:48;;;;;;;24.27;13.45;;;-5.50;99.90;;;;;;5078209;28;20208;-61
2024/01/11 09:08:14;;;;;;;22.75;13.27;;;-5.50;99.90;;;;;;5076771;28;20207;-61
2024/01/11 09:10:42;;;;;;;27.40;13.35;;;-5.40;99.90;;;;;;5077329;28;20197;-62
2024/01/11 09:13:09;;;;;;;26.50;13.05;;;-5.30;99.90;;;;;;5076454;28;20209;-62
2024/01/11 09:15:35;;;;;;;23.02;13.27;;;-5.30;99.90;;;;;;5076581;28;20208;-62
2024/01/11 09:18:02;;;;;;;20.52;12.85;;;-5.20;99.90;;;;;;5076249;28;20205;-61
2024/01/11 09:20:29;;;;;;;21.23;12.88;;;-5.10;99.90;;;;;;5076334;28;20209;-61
2024/01/11 09:22:57;;;;;;;21.73;11.73;;;-5.00;99.90;;;;;;5076579;28;20243;-61
2024/01/11 09:25:24;;;;;;;22.40;13.13;;;-4.90;99.90;;;;;;5077102;28;20207;-63
2024/01/11 09:27:51;;;;;;;21.20;12.82;;;-4.80;99.90;;;;;;5076919;28;20201;-63
2024/01/11 09:30:18;;;;;;;22.85;13.32;;;-4.70;99.90;;;;;;5077743;28;20201;-63
2024/01/11 09:32:45;;;;;;;28.38;14.45;;;-4.70;99.90;;;;;;5078414;28;20243;-65
2024/01/11 09:35:12;;;;;;;19.38;13.10;;;-4.70;99.90;;;;;;5077774;28;20201;-62
2024/01/11 09:37:39;;;;;;;27.92;14.32;;;-4.60;99.90;;;;;;5077742;28;20201;-62
2024/01/11 09:40:10;;;;;;;26.73;14.02;;;-4.60;99.90;;;;;;5077270;28;20205;-63
2024/01/11 09:42:37;;;;;;;25.63;12.02;;;-4.60;99.90;;;;;;5078362;28;20659;-63
2024/01/11 09:45:08;;;;;;;26.02;13.55;;;-4.60;99.90;;;;;;5078569;28;20570;-65
2024/01/11 09:47:35;;;;;;;22.65;13.50;;;-4.50;99.90;;;;;;5077101;28;20264;-63
2024/01/11 09:50:04;;;;;;;23.50;12.75;;;-4.50;99.90;;;;;;5077005;28;20197;-63
2024/01/11 09:52:31;;;;;;;25.35;13.35;;;-4.50;99.90;;;;;;5076709;28;20730;-62
2024/01/11 09:54:58;;;;;;;22.33;12.75;;;-4.40;99.90;;;;;;5077466;28;20300;-64
2024/01/11 09:57:30;;;;;;;27.83;12.98;;;-4.40;99.90;;;;;;5077500;28;20201;-64
2024/01/11 09:59:58;;;;;;;33.60;14.52;;;-4.30;99.90;;;;;;5077417;28;20188;-63
2024/01/11 10:02:26;;;;;;;25.48;13.63;;;-4.20;99.90;;;;;;5076035;28;20225;-62
2024/01/11 10:04:53;;;;;;;22.52;13.38;;;-4.10;99.90;;;;;;5076591;28;20254;-63
2024/01/11 10:07:22;;;;;;;26.13;13.55;;;-4.00;99.90;;;;;;5076414;28;20197;-63
2024/01/11 10:09:49;;;;;;;26.63;13.68;;;-4.00;99.90;;;;;;5076469;28;20211;-64
2024/01/11 10:12:16;;;;;;;24.17;14.45;;;-4.00;99.90;;;;;;5075707;28;20255;-63
2024/01/11 10:14:44;;;;;;;25.38;15.57;;;-3.90;99.90;;;;;;5075710;28;20698;-63
2024/01/11 10:17:11;;;;;;;25.48;13.52;;;-3.90;99.90;;;;;;5075994;28;20308;-63
2024/01/11 10:19:37;;;;;;;28.60;13.80;;;-3.90;99.90;;;;;;5077407;28;20201;-63
2024/01/11 10:22:05;;;;;;;25.52;13.45;;;-3.80;99.90;;;;;;5078862;28;20220;-64
2024/01/11 10:24:32;;;;;;;25.40;14.00;;;-3.70;99.90;;;;;;5077128;28;20318;-63
2024/01/11 10:27:03;;;;;;;22.08;13.40;;;-3.70;99.90;;;;;;5078151;28;20201;-63
2024/01/11 10:29:31;;;;;;;23.00;13.77;;;-3.60;99.90;;;;;;5077110;28;20643;-64
2024/01/11 10:32:00;;;;;;;27.70;14.98;;;-3.60;99.90;;;;;;5076704;28;20225;-63
2024/01/11 10:34:26;;;;;;;24.45;12.07;;;-3.50;99.90;;;;;;5076585;28;20220;-64
2024/01/11 10:36:54;;;;;;;20.52;11.40;;;-3.50;99.90;;;;;;5076745;28;20208;-65
2024/01/11 10:39:25;;;;;;;24.38;12.15;;;-3.50;99.90;;;;;;5076507;28;20737;-63
2024/01/11 10:41:57;;;;;;;28.10;14.30;;;-3.50;99.90;;;;;;5077268;28;20233;-63
2024/01/11 10:44:25;;;;;;;29.05;13.27;;;-3.40;99.90;;;;;;5078221;28;20187;-64
2024/01/11 10:46:54;;;;;;;27.58;13.88;;;-3.40;99.90;;;;;;5076883;28;20295;-64
2024/01/11 10:49:26;;;;;;;24.35;12.20;;;-3.30;99.90;;;;;;5077608;28;20201;-64
2024/01/11 10:51:59;;;;;;;29.92;13.85;;;-3.30;99.90;;;;;;5077384;28;20217;-65
2024/01/11 10:54:28;;;;;;;25.40;12.68;;;-3.20;99.90;;;;;;5080186;28;20205;-64
2024/01/11 10:56:55;;;;;;;29.23;14.40;;;-3.10;99.90;;;;;;5080863;28;20562;-64
2024/01/11 10:59:24;;;;;;;25.38;12.63;;;-3.00;99.90;;;;;;5080906;28;20201;-65
2024/01/11 11:01:54;;;;;;;28.50;14.00;;;-3.00;99.90;;;;;;5080392;28;20231;-64
2024/01/11 11:04:23;;;;;;;30.80;14.73;;;-2.90;99.90;;;;;;5081902;28;20269;-65
2024/01/11 11:06:51;;;;;;;29.02;13.90;;;-2.90;99.90;;;;;;5080803;28;20201;-65
2024/01/11 11:09:19;;;;;;;24.42;13.45;;;-2.90;99.90;;;;;;5078870;28;20201;-64
2024/01/11 11:11:47;;;;;;;26.08;12.98;;;-2.80;99.90;;;;;;5077096;28;20235;-65
2024/01/11 11:14:17;;;;;;;19.60;11.52;;;-2.80;99.90;;;;;;5077401;28;20247;-64
2024/01/11 11:16:46;;;;;;;24.80;13.25;;;-2.80;99.90;;;;;;5078975;28;20201;-66
2024/01/11 11:19:13;;;;;;;27.75;14.20;;;-2.80;99.90;;;;;;5077012;28;20205;-64
2024/01/11 11:21:44;;;;;;;23.08;13.23;;;-2.70;99.90;;;;;;5076204;28;20259;-66
2024/01/11 11:24:11;;;;;;;22.45;12.55;;;-2.70;99.90;;;;;;5075928;28;20190;-65
2024/01/11 11:26:38;;;;;;;22.13;13.00;;;-2.70;99.90;;;;;;5078104;28;20216;-65
2024/01/11 11:29:06;;;;;;;25.88;13.55;;;-2.60;99.90;;;;;;5076949;28;20207;-65
2024/01/11 11:31:36;;;;;;;27.20;13.60;;;-2.60;99.90;;;;;;5076088;28;20224;-65
2024/01/11 11:34:05;;;;;;;22.85;12.52;;;-2.60;99.90;;;;;;5074917;28;20213;-64
2024/01/11 11:36:34;;;;;;;18.42;11.48;;;-2.60;99.90;;;;;;5075255;28;20231;-65
2024/01/11 11:39:03;;;;;;;19.10;11.55;;;-2.60;99.90;;;;;;5074958;28;20288;-65
2024/01/11 11:41:32;;;;;;;19.95;11.90;;;-2.70;99.90;;;;;;5074647;28;20316;-65
2024/01/11 11:44:02;;;;;;;20.45;13.07;;;-2.70;99.90;;;;;;5075001;28;20197;-64
2024/01/11 11:46:31;;;;;;;21.48;10.77;;;-2.60;99.90;;;;;;5075031;28;20203;-64
2024/01/11 11:48:59;;;;;;;21.90;11.57;;;-2.60;99.90;;;;;;5074138;28;20201;-64
2024/01/11 11:51:27;;;;;;;21.13;12.38;;;-2.60;99.90;;;;;;5074554;28;20260;-66
2024/01/11 11:53:54;;;;;;;20.45;11.60;;;-2.50;99.90;;;;;;5074899;28;20641;-65
2024/01/11 11:56:23;;;;;;;23.38;12.40;;;-2.40;99.90;;;;;;5074502;28;20197;-65
2024/01/11 11:58:52;;;;;;;17.95;10.30;;;-2.40;99.90;;;;;;5074065;28;20205;-64
2024/01/11 12:01:19;;;;;;;17.20;9.38;;;-2.30;99.90;;;;;;5074641;28;20225;-65
2024/01/11 12:03:50;;;;;;;18.65;11.05;;;-2.30;99.90;;;;;;5075168;28;20193;-64
2024/01/11 12:06:18;;;;;;;17.73;10.45;;;-2.30;99.90;;;;;;5074638;28;20192;-63
2024/01/11 12:08:46;;;;;;;17.50;9.73;;;-2.30;99.90;;;;;;5075855;28;20674;-64
2024/01/11 12:11:18;;;;;;;21.40;10.40;;;-2.30;99.90;;;;;;5074848;28;20752;-64
2024/01/11 12:13:47;;;;;;;17.45;11.25;;;-2.30;99.90;;;;;;5075422;28;20235;-64
2024/01/11 12:16:14;;;;;;;20.20;9.55;;;-2.20;99.90;;;;;;5075524;28;20671;-64
2024/01/11 12:18:41;;;;;;;15.88;8.85;;;-2.10;99.90;;;;;;5080484;28;20205;-65
2024/01/11 12:21:08;;;;;;;16.08;9.27;;;-2.10;99.90;;;;;;5083463;28;20231;-66
2024/01/11 12:23:35;;;;;;;16.48;8.02;;;-2.10;99.90;;;;;;5078654;28;20197;-65
2024/01/11 12:26:03;;;;;;;21.67;9.60;;;-2.10;99.90;;;;;;5080855;28;20555;-65
2024/01/11 12:28:31;;;;;;;15.95;8.18;;;-2.00;99.90;;;;;;5082344;28;20213;-64
2024/01/11 12:31:00;;;;;;;14.57;8.98;;;-2.00;99.90;;;;;;5081556;28;20708;-64
2024/01/11 12:33:27;;;;;;;19.40;9.85;;;-1.90;99.90;;;;;;5083882;28;20232;-64
2024/01/11 12:35:54;;;;;;;15.73;8.60;;;-1.90;99.90;;;;;;5086245;28;20204;-66